createdAt,value
2022-10-23T00:00:24.011Z,14.90
2022-10-23T00:01:23.938Z,14.86
2022-10-23T00:02:23.959Z,14.85
2022-10-23T00:03:23.861Z,14.97
2022-10-23T00:04:23.820Z,14.95
2022-10-23T00:05:23.794Z,15.04
2022-10-23T00:06:23.740Z,15.00
2022-10-23T00:07:23.739Z,15.00
2022-10-23T00:08:23.667Z,14.91
2022-10-23T00:09:23.624Z,14.90
2022-10-23T00:10:23.583Z,14.91
2022-10-23T00:11:23.557Z,14.90
2022-10-23T00:12:23.507Z,14.87
2022-10-23T00:13:23.467Z,14.93
2022-10-23T00:14:23.425Z,14.91
2022-10-23T00:15:23.388Z,14.91
2022-10-23T00:16:23.346Z,14.97
2022-10-23T00:17:23.322Z,14.90
2022-10-23T00:18:23.269Z,14.94
2022-10-23T00:19:23.231Z,14.95
2022-10-23T00:20:23.192Z,14.91
2022-10-23T00:21:23.152Z,14.95
2022-10-23T00:22:23.112Z,14.85
2022-10-23T00:23:23.085Z,14.69
2022-10-23T00:24:23.046Z,14.80
2022-10-23T00:25:22.994Z,14.78
2022-10-23T00:26:22.956Z,14.86
2022-10-23T00:27:22.914Z,14.87
2022-10-23T00:28:22.878Z,14.69
2022-10-23T00:29:22.836Z,14.82
2022-10-23T00:30:22.810Z,14.94
2022-10-23T00:31:22.756Z,14.86
2022-10-23T00:32:22.770Z,14.90
2022-10-23T00:33:22.680Z,14.85
2022-10-23T00:34:22.640Z,14.78
2022-10-23T00:35:22.600Z,14.67
2022-10-23T00:36:22.571Z,14.78
2022-10-23T00:37:22.532Z,14.82
2022-10-23T00:38:22.479Z,14.80
2022-10-23T00:39:22.443Z,14.79
2022-10-23T00:40:22.400Z,14.82
2022-10-23T00:41:22.364Z,14.85
2022-10-23T00:42:22.332Z,14.74
2022-10-23T00:43:22.287Z,14.69
2022-10-23T00:44:22.252Z,14.74
2022-10-23T00:45:22.210Z,14.78
2022-10-23T00:46:22.164Z,14.83
2022-10-23T00:47:22.127Z,14.80
2022-10-23T00:48:22.089Z,14.90
2022-10-23T00:49:22.061Z,14.97
2022-10-23T00:50:22.007Z,14.85
2022-10-23T00:51:21.968Z,14.95
2022-10-23T00:52:21.926Z,14.79
2022-10-23T00:53:21.889Z,14.75
2022-10-23T00:54:24.340Z,14.75
2022-10-23T00:55:21.835Z,14.82
2022-10-23T00:56:21.786Z,14.79
2022-10-23T00:57:21.769Z,14.78
2022-10-23T00:58:21.691Z,14.75
2022-10-23T00:59:21.653Z,14.72
2022-10-23T01:00:21.613Z,14.67
2022-10-23T01:01:21.654Z,14.78
2022-10-23T01:02:21.578Z,14.75
2022-10-23T01:03:21.494Z,14.82
2022-10-23T01:04:21.455Z,14.67
2022-10-23T01:05:21.416Z,14.78
2022-10-23T01:06:21.374Z,14.71
2022-10-23T01:07:21.336Z,14.83
2022-10-23T01:08:21.308Z,14.72
2022-10-23T01:09:21.257Z,14.75
2022-10-23T01:10:21.218Z,14.78
2022-10-23T01:11:21.297Z,14.79
2022-10-23T01:12:21.141Z,14.79
2022-10-23T01:13:21.098Z,14.75
2022-10-23T01:14:21.070Z,14.85
2022-10-23T01:15:21.023Z,14.80
2022-10-23T01:16:20.981Z,14.74
2022-10-23T01:17:20.940Z,14.64
2022-10-23T01:18:20.901Z,14.63
2022-10-23T01:19:20.871Z,14.71
2022-10-23T01:20:20.856Z,14.72
2022-10-23T01:21:20.781Z,14.78
2022-10-23T01:22:20.789Z,14.82
2022-10-23T01:23:20.704Z,14.79
2022-10-23T01:24:20.666Z,14.74
2022-10-23T01:25:20.638Z,14.72
2022-10-23T01:26:20.594Z,14.78
2022-10-23T01:27:20.544Z,14.80
2022-10-23T01:28:20.506Z,14.80
2022-10-23T01:29:20.465Z,14.87
2022-10-23T01:30:20.428Z,14.85
2022-10-23T01:31:20.399Z,14.83
2022-10-23T01:32:20.350Z,14.90
2022-10-23T01:33:20.306Z,14.90
2022-10-23T01:34:20.267Z,14.83
2022-10-23T01:35:20.228Z,14.85
2022-10-23T01:36:20.191Z,14.85
2022-10-23T01:37:20.159Z,14.74
2022-10-23T01:38:20.109Z,14.74
2022-10-23T01:39:20.069Z,14.85
2022-10-23T01:40:20.042Z,14.82
2022-10-23T01:41:19.991Z,14.91
2022-10-23T01:42:19.950Z,14.85
2022-10-23T01:43:19.922Z,14.93
2022-10-23T01:44:19.873Z,14.95
2022-10-23T01:45:19.835Z,14.87
2022-10-23T01:46:19.792Z,14.90
2022-10-23T01:48:19.715Z,14.85
2022-10-23T01:49:19.686Z,14.91
2022-10-23T01:50:19.635Z,14.80
2022-10-23T01:51:19.594Z,14.85
2022-10-23T01:52:19.574Z,14.86
2022-10-23T01:53:19.518Z,14.90
2022-10-23T01:54:19.478Z,14.93
2022-10-23T01:55:19.447Z,14.98
2022-10-23T01:56:19.398Z,14.94
2022-10-23T01:57:19.357Z,14.93
2022-10-23T01:58:19.319Z,14.86
2022-10-23T01:59:19.280Z,14.95
2022-10-23T02:00:19.240Z,14.94
2022-10-23T02:01:19.291Z,14.90
2022-10-23T02:02:19.207Z,14.82
2022-10-23T02:03:19.122Z,14.86
2022-10-23T02:04:19.082Z,14.95
2022-10-23T02:05:19.042Z,14.91
2022-10-23T02:06:19.003Z,14.91
2022-10-23T02:07:18.972Z,14.87
2022-10-23T02:08:18.923Z,14.90
2022-10-23T02:09:18.884Z,14.83
2022-10-23T02:10:18.842Z,14.86
2022-10-23T02:11:18.804Z,14.83
2022-10-23T02:12:18.829Z,14.78
2022-10-23T02:13:18.727Z,14.91
2022-10-23T02:14:18.685Z,14.93
2022-10-23T02:15:18.648Z,14.82
2022-10-23T02:16:18.610Z,14.83
2022-10-23T02:17:18.583Z,14.90
2022-10-23T02:18:18.529Z,14.90
2022-10-23T02:19:18.487Z,14.90
2022-10-23T02:20:18.451Z,14.90
2022-10-23T02:21:18.410Z,14.94
2022-10-23T02:22:18.394Z,14.97
2022-10-23T02:23:18.345Z,14.94
2022-10-23T02:24:18.293Z,15.07
2022-10-23T02:25:18.253Z,15.01
2022-10-23T02:26:18.217Z,15.07
2022-10-23T02:27:18.173Z,15.05
2022-10-23T02:28:18.134Z,14.98
2022-10-23T02:29:18.112Z,15.09
2022-10-23T02:30:18.077Z,15.03
2022-10-23T02:31:18.015Z,15.00
2022-10-23T02:32:17.977Z,14.95
2022-10-23T02:33:17.936Z,14.91
2022-10-23T02:34:17.909Z,15.01
2022-10-23T02:35:17.857Z,14.93
2022-10-23T02:36:17.820Z,15.04
2022-10-23T02:37:17.797Z,14.95
2022-10-23T02:38:17.742Z,15.01
2022-10-23T02:39:17.700Z,14.97
2022-10-23T02:40:17.672Z,15.05
2022-10-23T02:41:17.633Z,14.91
2022-10-23T02:42:17.585Z,14.91
2022-10-23T02:43:17.542Z,15.04
2022-10-23T02:44:17.511Z,15.04
2022-10-23T02:45:17.462Z,14.98
2022-10-23T02:46:17.429Z,15.00
2022-10-23T02:47:17.419Z,15.00
2022-10-23T02:48:17.347Z,15.03
2022-10-23T02:49:17.309Z,15.07
2022-10-23T02:50:17.270Z,15.01
2022-10-23T02:51:17.226Z,15.12
2022-10-23T02:52:17.192Z,15.05
2022-10-23T02:53:17.159Z,15.11
2022-10-23T02:55:49.123Z,15.03
2022-10-23T02:56:49.076Z,15.03
2022-10-23T02:57:49.040Z,15.05
2022-10-23T02:58:49.011Z,15.00
2022-10-23T02:59:48.959Z,14.93
2022-10-23T03:00:48.919Z,15.00
2022-10-23T03:01:48.997Z,14.91
2022-10-23T03:02:48.840Z,14.87
2022-10-23T03:03:48.812Z,14.93
2022-10-23T03:04:48.762Z,14.94
2022-10-23T03:05:48.722Z,14.87
2022-10-23T03:06:48.680Z,14.94
2022-10-23T03:07:48.643Z,15.03
2022-10-23T03:08:48.605Z,15.01
2022-10-23T03:09:48.575Z,14.98
2022-10-23T03:11:48.485Z,14.93
2022-10-23T03:12:48.449Z,14.86
2022-10-23T03:13:48.405Z,14.91
2022-10-23T03:14:48.387Z,14.97
2022-10-23T03:15:48.327Z,14.94
2022-10-23T03:16:48.296Z,14.94
2022-10-23T03:17:48.249Z,14.85
2022-10-23T03:18:48.208Z,14.95
2022-10-23T03:19:48.169Z,14.91
2022-10-23T03:20:48.165Z,14.91
2022-10-23T03:21:48.093Z,14.78
2022-10-23T03:22:48.054Z,14.91
2022-10-23T03:23:48.015Z,14.87
2022-10-23T03:24:47.977Z,14.87
2022-10-23T03:25:47.937Z,15.04
2022-10-23T03:26:47.908Z,14.95
2022-10-23T03:27:47.859Z,14.97
2022-10-23T03:28:47.814Z,14.93
2022-10-23T03:29:47.779Z,15.04
2022-10-23T03:30:47.735Z,14.97
2022-10-23T03:31:47.697Z,14.93
2022-10-23T03:32:47.690Z,14.93
2022-10-23T03:33:47.619Z,14.93
2022-10-23T03:34:47.581Z,15.01
2022-10-23T03:36:47.503Z,15.07
2022-10-23T03:37:47.464Z,15.07
2022-10-23T03:38:47.434Z,15.01
2022-10-23T03:39:47.384Z,15.09
2022-10-23T03:40:47.345Z,15.11
2022-10-23T03:41:47.315Z,15.05
2022-10-23T03:42:47.264Z,15.11
2022-10-23T03:43:47.227Z,15.07
2022-10-23T03:44:47.186Z,15.03
2022-10-23T03:45:47.151Z,15.09
2022-10-23T03:46:47.110Z,15.15
2022-10-23T03:47:47.091Z,15.11
2022-10-23T03:48:47.030Z,15.05
2022-10-23T03:49:46.987Z,15.11
2022-10-23T03:50:46.951Z,15.04
2022-10-23T03:51:46.912Z,15.12
2022-10-23T03:52:46.875Z,15.09
2022-10-23T03:53:46.842Z,15.05
2022-10-23T03:54:46.796Z,15.04
2022-10-23T03:55:46.754Z,15.07
2022-10-23T03:56:46.715Z,15.00
2022-10-23T03:57:46.679Z,15.00
2022-10-23T03:58:46.639Z,15.07
2022-10-23T03:59:46.610Z,15.05
2022-10-23T04:00:46.559Z,15.00
2022-10-23T04:01:46.659Z,15.01
2022-10-23T04:02:46.760Z,15.11
2022-10-23T04:03:46.440Z,14.97
2022-10-23T04:04:46.401Z,15.05
2022-10-23T04:05:46.372Z,14.97
2022-10-23T04:06:46.321Z,14.95
2022-10-23T04:07:46.282Z,14.95
2022-10-23T04:08:46.244Z,14.86
2022-10-23T04:09:46.204Z,14.86
2022-10-23T04:10:46.163Z,14.98
2022-10-23T04:11:46.137Z,15.04
2022-10-23T04:12:46.232Z,14.86
2022-10-23T04:13:46.046Z,15.07
2022-10-23T04:14:46.006Z,15.00
2022-10-23T04:15:45.969Z,15.00
2022-10-23T04:16:45.932Z,14.93
2022-10-23T04:17:45.902Z,14.95
2022-10-23T04:18:45.851Z,14.87
2022-10-23T04:19:45.817Z,14.97
2022-10-23T04:20:45.773Z,14.91
2022-10-23T04:21:45.731Z,14.86
2022-10-23T04:22:46.040Z,14.86
2022-10-23T04:23:45.654Z,14.93
2022-10-23T04:24:45.620Z,14.80
2022-10-23T04:25:45.576Z,14.82
2022-10-23T04:26:45.536Z,14.94
2022-10-23T04:27:45.851Z,14.95
2022-10-23T04:28:45.473Z,14.87
2022-10-23T04:29:45.420Z,14.93
2022-10-23T04:30:45.382Z,14.83
2022-10-23T04:31:45.341Z,14.86
2022-10-23T04:32:45.302Z,14.93
2022-10-23T04:33:45.263Z,14.87
2022-10-23T04:34:45.238Z,14.80
2022-10-23T04:35:45.183Z,14.83
2022-10-23T04:36:45.149Z,14.82
2022-10-23T04:37:45.364Z,14.90
2022-10-23T04:38:45.067Z,14.79
2022-10-23T04:39:45.030Z,14.78
2022-10-23T04:40:45.001Z,14.74
2022-10-23T04:41:44.946Z,14.82
2022-10-23T04:42:45.178Z,14.72
2022-10-23T04:43:44.869Z,14.75
2022-10-23T04:44:44.847Z,14.64
2022-10-23T04:45:44.791Z,14.71
2022-10-23T04:46:44.751Z,14.74
2022-10-23T04:47:44.712Z,14.75
2022-10-23T04:48:44.686Z,14.71
2022-10-23T04:49:44.636Z,14.86
2022-10-23T04:51:44.554Z,14.69
2022-10-23T04:52:44.745Z,14.71
2022-10-23T04:53:44.475Z,14.80
2022-10-23T04:54:44.448Z,14.63
2022-10-23T04:55:44.398Z,14.66
2022-10-23T04:56:44.359Z,14.69
2022-10-23T04:57:44.320Z,14.78
2022-10-23T04:58:44.279Z,14.74
2022-10-23T04:59:44.243Z,14.78
2022-10-23T05:00:44.239Z,14.78
2022-10-23T05:01:44.219Z,14.71
2022-10-23T05:02:44.304Z,14.74
2022-10-23T05:03:44.089Z,14.72
2022-10-23T05:04:44.047Z,14.64
2022-10-23T05:05:44.006Z,14.66
2022-10-23T05:06:43.976Z,14.67
2022-10-23T05:07:44.295Z,14.72
2022-10-23T05:08:43.889Z,14.74
2022-10-23T05:09:43.847Z,14.64
2022-10-23T05:10:43.812Z,14.75
2022-10-23T05:11:43.787Z,14.67
2022-10-23T05:12:43.733Z,14.63
2022-10-23T05:13:43.691Z,14.67
2022-10-23T05:14:43.649Z,14.63
2022-10-23T05:16:43.572Z,14.64
2022-10-23T05:17:43.922Z,14.69
2022-10-23T05:18:43.499Z,14.64
2022-10-23T05:19:43.454Z,14.63
2022-10-23T05:20:43.419Z,14.66
2022-10-23T05:21:43.382Z,14.64
2022-10-23T05:22:43.338Z,14.67
2022-10-23T05:23:43.309Z,14.69
2022-10-23T05:24:45.805Z,14.75
2022-10-23T05:25:43.217Z,14.71
2022-10-23T05:26:43.178Z,14.66
2022-10-23T05:27:43.273Z,14.69
2022-10-23T05:28:43.100Z,14.75
2022-10-23T05:29:43.072Z,14.80
2022-10-23T05:30:43.025Z,14.72
2022-10-23T05:31:42.984Z,14.72
2022-10-23T05:32:43.292Z,14.74
2022-10-23T05:33:42.903Z,14.63
2022-10-23T05:34:42.876Z,14.71
2022-10-23T05:35:42.831Z,14.80
2022-10-23T05:36:42.816Z,14.80
2022-10-23T05:37:42.743Z,14.79
2022-10-23T05:38:42.705Z,14.74
2022-10-23T05:39:42.665Z,14.80
2022-10-23T05:40:42.668Z,14.85
2022-10-23T05:41:42.589Z,14.72
2022-10-23T05:42:42.931Z,14.80
2022-10-23T05:43:42.510Z,14.80
2022-10-23T05:44:42.472Z,14.71
2022-10-23T05:45:42.428Z,14.72
2022-10-23T05:46:42.393Z,14.75
2022-10-23T05:47:42.351Z,14.86
2022-10-23T05:48:42.322Z,14.80
2022-10-23T05:49:42.287Z,14.97
2022-10-23T05:50:42.234Z,14.82
2022-10-23T05:51:42.195Z,14.79
2022-10-23T05:52:42.458Z,14.90
2022-10-23T05:53:42.545Z,14.83
2022-10-23T05:54:42.087Z,14.93
2022-10-23T05:55:42.034Z,14.80
2022-10-23T05:56:41.998Z,14.91
2022-10-23T05:57:42.371Z,14.83
2022-10-23T05:58:41.917Z,14.94
2022-10-23T05:59:41.878Z,14.82
2022-10-23T06:00:41.850Z,14.91
2022-10-23T06:01:41.916Z,14.97
2022-10-23T06:02:41.835Z,14.93
2022-10-23T06:03:41.720Z,14.85
2022-10-23T06:04:41.683Z,15.00
2022-10-23T06:05:41.641Z,14.85
2022-10-23T06:06:41.618Z,14.83
2022-10-23T06:07:41.650Z,14.91
2022-10-23T06:08:41.523Z,14.87
2022-10-23T06:09:41.482Z,14.90
2022-10-23T06:10:41.445Z,14.91
2022-10-23T06:11:41.406Z,14.93
2022-10-23T06:12:41.377Z,14.90
2022-10-23T06:13:41.325Z,14.91
2022-10-23T06:14:41.287Z,14.94
2022-10-23T06:15:41.246Z,14.97
2022-10-23T06:16:41.213Z,15.00
2022-10-23T06:17:41.508Z,14.97
2022-10-23T06:18:41.155Z,14.87
2022-10-23T06:19:41.090Z,14.94
2022-10-23T06:20:41.051Z,15.03
2022-10-23T06:21:41.013Z,15.07
2022-10-23T06:22:41.282Z,15.01
2022-10-23T06:23:40.942Z,15.03
2022-10-23T06:24:40.894Z,15.00
2022-10-23T06:25:40.856Z,15.07
2022-10-23T06:26:40.815Z,15.05
2022-10-23T06:27:40.772Z,15.05
2022-10-23T06:28:40.735Z,15.05
2022-10-23T06:29:40.707Z,15.11
2022-10-23T06:30:40.659Z,15.07
2022-10-23T06:31:40.617Z,15.07
2022-10-23T06:32:40.893Z,15.03
2022-10-23T06:33:40.535Z,15.07
2022-10-23T06:34:40.511Z,15.04
2022-10-23T06:35:40.458Z,15.27
2022-10-23T06:36:40.422Z,15.15
2022-10-23T06:37:40.380Z,15.05
2022-10-23T06:38:40.545Z,15.16
2022-10-23T06:39:40.302Z,15.16
2022-10-23T06:40:40.277Z,15.18
2022-10-23T06:41:40.222Z,15.16
2022-10-23T06:42:40.494Z,15.28
2022-10-23T06:43:40.147Z,15.22
2022-10-23T06:44:40.113Z,15.31
2022-10-23T06:45:40.065Z,15.31
2022-10-23T06:46:40.037Z,15.33
2022-10-23T06:47:40.156Z,15.34
2022-10-23T06:48:39.950Z,15.34
2022-10-23T06:49:39.907Z,15.44
2022-10-23T06:50:39.870Z,15.35
2022-10-23T06:51:39.841Z,15.34
2022-10-23T06:52:47.025Z,15.31
2022-10-23T06:53:39.750Z,15.34
2022-10-23T06:54:39.716Z,15.49
2022-10-23T06:55:39.679Z,15.55
2022-10-23T06:56:39.634Z,15.51
2022-10-23T06:57:39.653Z,15.55
2022-10-23T06:58:39.557Z,15.53
2022-10-23T06:59:39.517Z,15.48
2022-10-23T07:00:39.504Z,15.56
2022-10-23T07:01:39.641Z,15.56
2022-10-23T07:02:39.576Z,15.55
2022-10-23T07:03:39.375Z,15.66
2022-10-23T07:04:39.323Z,15.58
2022-10-23T07:05:39.283Z,15.66
2022-10-23T07:06:39.245Z,15.66
2022-10-23T07:07:39.204Z,15.64
2022-10-23T07:08:39.178Z,15.58
2022-10-23T07:09:39.126Z,15.66
2022-10-23T07:10:39.088Z,15.60
2022-10-23T07:11:39.049Z,15.76
2022-10-23T07:12:39.011Z,15.68
2022-10-23T07:13:38.975Z,15.58
2022-10-23T07:14:38.942Z,15.67
2022-10-23T07:15:38.893Z,15.70
2022-10-23T07:16:38.855Z,15.84
2022-10-23T07:17:38.819Z,15.70
2022-10-23T07:18:38.784Z,15.81
2022-10-23T07:19:38.738Z,15.81
2022-10-23T07:20:38.714Z,15.92
2022-10-23T07:21:38.669Z,15.84
2022-10-23T07:22:38.629Z,15.86
2022-10-23T07:23:38.585Z,15.77
2022-10-23T07:24:38.546Z,15.81
2022-10-23T07:25:38.507Z,15.81
2022-10-23T07:26:38.504Z,15.88
2022-10-23T07:27:38.446Z,15.89
2022-10-23T07:28:38.391Z,15.92
2022-10-23T07:29:38.351Z,15.96
2022-10-23T07:30:38.314Z,16.01
2022-10-23T07:31:38.283Z,16.03
2022-10-23T07:32:38.237Z,16.14
2022-10-23T07:33:38.209Z,16.11
2022-10-23T07:34:38.159Z,16.26
2022-10-23T07:35:39.292Z,16.26
2022-10-23T07:36:38.086Z,16.26
2022-10-23T07:37:38.042Z,16.32
2022-10-23T07:38:38.007Z,16.37
2022-10-23T07:39:37.973Z,16.48
2022-10-23T07:40:37.931Z,16.51
2022-10-23T07:41:37.890Z,16.48
2022-10-23T07:42:37.851Z,16.67
2022-10-23T07:43:37.813Z,16.72
2022-10-23T07:44:37.774Z,16.70
2022-10-23T07:45:37.752Z,16.70
2022-10-23T07:46:37.697Z,16.91
2022-10-23T07:47:37.659Z,17.02
2022-10-23T07:48:37.622Z,17.02
2022-10-23T07:49:37.583Z,17.09
2022-10-23T07:50:37.547Z,17.17
2022-10-23T07:51:37.522Z,17.38
2022-10-23T07:52:37.473Z,17.38
2022-10-23T07:53:37.436Z,17.42
2022-10-23T07:54:37.396Z,17.53
2022-10-23T07:55:37.359Z,17.60
2022-10-23T07:56:37.333Z,17.51
2022-10-23T07:57:37.280Z,17.73
2022-10-23T07:58:37.270Z,17.96
2022-10-23T07:59:38.087Z,18.19
2022-10-23T08:00:37.171Z,18.17
2022-10-23T08:01:37.215Z,18.34
2022-10-23T08:02:37.182Z,18.69
2022-10-23T08:03:37.058Z,19.20
2022-10-23T08:04:37.021Z,19.42
2022-10-23T08:05:36.986Z,19.35
2022-10-23T08:06:36.947Z,19.55
2022-10-23T08:07:36.915Z,19.55
2022-10-23T08:08:36.963Z,19.68
2022-10-23T08:09:36.840Z,19.85
2022-10-23T08:10:36.804Z,20.10
2022-10-23T08:11:36.768Z,20.54
2022-10-23T08:12:36.747Z,20.44
2022-10-23T08:13:36.831Z,20.61
2022-10-23T08:14:36.659Z,20.33
2022-10-23T08:15:36.626Z,20.33
2022-10-23T08:16:36.590Z,20.13
2022-10-23T08:17:36.557Z,20.44
2022-10-23T08:18:36.528Z,20.68
2022-10-23T08:19:36.485Z,21.06
2022-10-23T08:20:36.450Z,21.46
2022-10-23T08:21:36.415Z,21.81
2022-10-23T08:22:36.394Z,22.05
2022-10-23T08:23:36.348Z,22.48
2022-10-23T08:24:36.316Z,22.39
2022-10-23T08:25:36.283Z,22.20
2022-10-23T08:26:36.249Z,22.17
2022-10-23T08:27:36.211Z,21.94
2022-10-23T08:28:36.189Z,21.85
2022-10-23T08:29:36.145Z,21.75
2022-10-23T08:30:36.111Z,21.46
2022-10-23T08:31:36.077Z,20.97
2022-10-23T08:32:36.041Z,20.50
2022-10-23T08:33:36.038Z,20.50
2022-10-23T08:34:35.983Z,20.66
2022-10-23T08:35:35.952Z,20.73
2022-10-23T08:36:35.907Z,20.97
2022-10-23T08:37:35.885Z,20.94
2022-10-23T08:38:35.842Z,21.13
2022-10-23T08:39:35.811Z,21.53
2022-10-23T08:40:35.773Z,21.74
2022-10-23T08:41:35.750Z,21.91
2022-10-23T08:42:35.716Z,21.90
2022-10-23T08:43:35.673Z,21.71
2022-10-23T08:44:35.664Z,21.85
2022-10-23T08:45:35.607Z,21.26
2022-10-23T08:46:35.571Z,20.97
2022-10-23T08:47:35.537Z,20.90
2022-10-23T08:48:35.507Z,20.76
2022-10-23T08:49:35.486Z,20.60
2022-10-23T08:50:35.454Z,20.54
2022-10-23T08:51:35.401Z,20.54
2022-10-23T08:52:35.369Z,20.38
2022-10-23T08:53:35.334Z,20.56
2022-10-23T08:56:07.345Z,20.51
2022-10-23T08:57:07.284Z,20.38
2022-10-23T08:58:07.253Z,20.19
2022-10-23T08:59:07.210Z,20.34
2022-10-23T09:00:07.191Z,20.57
2022-10-23T09:01:07.258Z,20.66
2022-10-23T09:02:07.267Z,20.81
2022-10-23T09:03:07.078Z,20.69
2022-10-23T09:04:07.039Z,20.69
2022-10-23T09:05:07.008Z,20.78
2022-10-23T09:06:06.984Z,20.76
2022-10-23T09:07:06.982Z,20.76
2022-10-23T09:08:06.905Z,20.60
2022-10-23T09:09:06.908Z,20.57
2022-10-23T09:10:06.834Z,20.12
2022-10-23T09:11:06.810Z,19.87
2022-10-23T09:12:06.775Z,20.22
2022-10-23T09:13:06.734Z,20.33
2022-10-23T09:14:06.697Z,20.35
2022-10-23T09:15:06.662Z,20.26
2022-10-23T09:16:06.626Z,20.31
2022-10-23T09:17:06.625Z,20.51
2022-10-23T09:18:06.558Z,20.76
2022-10-23T09:19:10.003Z,20.93
2022-10-23T09:20:06.487Z,21.03
2022-10-23T09:21:06.470Z,21.12
2022-10-23T09:22:06.442Z,21.21
2022-10-23T09:23:06.399Z,20.90
2022-10-23T09:24:06.351Z,20.60
2022-10-23T09:25:06.320Z,20.78
2022-10-23T09:26:06.280Z,20.85
2022-10-23T09:27:06.249Z,20.63
2022-10-23T09:28:06.214Z,20.50
2022-10-23T09:29:06.193Z,20.41
2022-10-23T09:30:06.142Z,20.40
2022-10-23T09:31:06.106Z,20.41
2022-10-23T09:32:06.072Z,20.35
2022-10-23T09:33:06.040Z,20.20
2022-10-23T09:34:09.634Z,20.22
2022-10-23T09:35:05.985Z,20.12
2022-10-23T09:36:05.945Z,20.12
2022-10-23T09:37:05.903Z,20.20
2022-10-23T09:38:05.868Z,20.17
2022-10-23T09:39:05.915Z,20.20
2022-10-23T09:40:05.807Z,20.20
2022-10-23T09:41:05.760Z,20.30
2022-10-23T09:42:05.726Z,20.25
2022-10-23T09:43:05.688Z,20.35
2022-10-23T09:44:05.653Z,20.35
2022-10-23T09:45:05.621Z,20.38
2022-10-23T09:46:05.589Z,20.57
2022-10-23T09:47:05.737Z,20.61
2022-10-23T09:48:05.528Z,20.63
2022-10-23T09:49:05.851Z,20.71
2022-10-23T09:50:05.443Z,20.79
2022-10-23T09:51:05.408Z,20.81
2022-10-23T09:52:05.373Z,20.60
2022-10-23T09:53:05.350Z,20.60
2022-10-23T09:54:05.302Z,20.75
2022-10-23T09:55:05.267Z,20.83
2022-10-23T09:56:05.234Z,21.05
2022-10-23T09:57:05.202Z,21.12
2022-10-23T09:58:05.173Z,21.30
2022-10-23T09:59:05.140Z,21.36
2022-10-23T10:00:05.095Z,21.27
2022-10-23T10:01:05.196Z,21.13
2022-10-23T10:02:05.188Z,21.13
2022-10-23T10:03:04.990Z,21.18
2022-10-23T10:04:04.952Z,21.16
2022-10-23T10:05:04.930Z,21.03
2022-10-23T10:06:04.884Z,20.88
2022-10-23T10:07:04.847Z,20.96
2022-10-23T10:08:04.815Z,20.79
2022-10-23T10:09:04.777Z,20.69
2022-10-23T10:10:04.754Z,20.40
2022-10-23T10:11:04.721Z,20.25
2022-10-23T10:12:04.676Z,20.20
2022-10-23T10:13:04.639Z,20.23
2022-10-23T10:14:04.602Z,20.25
2022-10-23T10:15:04.572Z,20.31
2022-10-23T10:16:04.543Z,20.16
2022-10-23T10:17:04.520Z,20.15
2022-10-23T10:18:04.462Z,20.12
2022-10-23T10:19:04.430Z,20.15
2022-10-23T10:20:06.954Z,20.23
2022-10-23T10:21:04.359Z,20.22
2022-10-23T10:22:04.318Z,20.30
2022-10-23T10:23:04.298Z,20.22
2022-10-23T10:24:04.254Z,20.17
2022-10-23T10:25:04.222Z,20.08
2022-10-23T10:26:04.180Z,20.13
2022-10-23T10:27:04.149Z,20.05
2022-10-23T10:28:04.121Z,20.13
2022-10-23T10:29:04.087Z,20.05
2022-10-23T10:30:04.042Z,20.23
2022-10-23T10:31:04.008Z,20.33
2022-10-23T10:32:03.967Z,20.27
2022-10-23T10:33:03.945Z,20.27
2022-10-23T10:34:03.911Z,20.23
2022-10-23T10:35:03.870Z,20.27
2022-10-23T10:36:03.826Z,20.27
2022-10-23T10:37:03.795Z,20.19
2022-10-23T10:38:03.756Z,19.98
2022-10-23T10:39:03.724Z,19.98
2022-10-23T10:40:03.693Z,20.05
2022-10-23T10:41:03.648Z,20.08
2022-10-23T10:42:03.610Z,20.15
2022-10-23T10:43:03.585Z,20.08
2022-10-23T10:44:03.546Z,20.22
2022-10-23T10:45:03.512Z,20.15
2022-10-23T10:46:03.557Z,20.27
2022-10-23T10:47:03.435Z,20.19
2022-10-23T10:48:03.403Z,20.16
2022-10-23T10:49:03.366Z,20.23
2022-10-23T10:50:03.332Z,20.12
2022-10-23T10:51:03.295Z,20.27
2022-10-23T10:52:03.269Z,20.31
2022-10-23T10:53:03.226Z,20.41
2022-10-23T10:54:03.183Z,20.48
2022-10-23T10:55:03.149Z,20.35
2022-10-23T10:56:03.147Z,20.38
2022-10-23T10:57:03.089Z,20.48
2022-10-23T10:58:03.057Z,20.51
2022-10-23T10:59:03.007Z,20.54
2022-10-23T11:00:02.972Z,20.68
2022-10-23T11:01:03.075Z,20.64
2022-10-23T11:02:03.017Z,20.69
2022-10-23T11:03:02.873Z,20.66
2022-10-23T11:04:02.836Z,20.75
2022-10-23T11:05:02.804Z,20.75
2022-10-23T11:06:02.764Z,20.69
2022-10-23T11:07:02.725Z,20.56
2022-10-23T11:08:02.699Z,20.56
2022-10-23T11:09:19.293Z,20.50
2022-10-23T11:10:02.619Z,20.40
2022-10-23T11:11:02.584Z,20.42
2022-10-23T11:12:02.548Z,20.37
2022-10-23T11:13:02.532Z,20.38
2022-10-23T11:14:02.475Z,20.41
2022-10-23T11:15:02.442Z,20.48
2022-10-23T11:16:02.406Z,20.38
2022-10-23T11:17:02.370Z,20.30
2022-10-23T11:18:02.337Z,20.27
2022-10-23T11:19:02.309Z,20.34
2022-10-23T11:20:02.279Z,20.44
2022-10-23T11:21:02.237Z,20.46
2022-10-23T11:22:02.191Z,20.31
2022-10-23T11:23:02.154Z,20.26
2022-10-23T11:24:02.156Z,20.17
2022-10-23T11:25:02.083Z,20.10
2022-10-23T11:26:02.050Z,20.10
2022-10-23T11:27:02.033Z,20.08
2022-10-23T11:28:03.770Z,20.02
2022-10-23T11:29:01.941Z,19.92
2022-10-23T11:30:01.906Z,20.04
2022-10-23T11:31:01.871Z,20.02
2022-10-23T11:32:01.833Z,19.98
2022-10-23T11:33:01.798Z,19.94
2022-10-23T11:34:01.773Z,19.94
2022-10-23T11:35:01.725Z,19.86
2022-10-23T11:36:01.689Z,19.75
2022-10-23T11:37:01.662Z,19.76
2022-10-23T11:38:01.622Z,19.71
2022-10-23T11:39:01.581Z,19.71
2022-10-23T11:40:01.558Z,19.75
2022-10-23T11:41:01.508Z,19.75
2022-10-23T11:42:01.475Z,19.67
2022-10-23T11:43:01.459Z,19.67
2022-10-23T11:44:01.769Z,19.76
2022-10-23T11:45:01.363Z,19.67
2022-10-23T11:46:01.341Z,19.72
2022-10-23T11:47:01.296Z,19.65
2022-10-23T11:48:01.253Z,19.57
2022-10-23T11:49:01.283Z,19.64
2022-10-23T11:50:01.193Z,19.65
2022-10-23T11:51:04.256Z,19.67
2022-10-23T11:52:26.627Z,19.68
2022-10-23T11:53:26.576Z,19.72
2022-10-23T11:54:26.541Z,19.75
2022-10-23T11:55:26.506Z,19.71
2022-10-23T11:56:48.208Z,19.85
2022-10-23T11:57:48.180Z,19.89
2022-10-23T11:58:48.132Z,19.95
2022-10-23T11:59:48.089Z,19.90
2022-10-23T12:00:48.062Z,20.02
2022-10-23T12:01:48.141Z,20.30
2022-10-23T12:02:48.168Z,20.30
2022-10-23T12:03:47.940Z,20.35
2022-10-23T12:04:47.908Z,20.26
2022-10-23T12:05:47.902Z,20.40
2022-10-23T12:06:45.238Z,20.60
2022-10-23T12:08:57.062Z,20.85
2022-10-23T12:09:57.037Z,20.93
2022-10-23T12:10:57.012Z,20.79
2022-10-23T12:11:57.011Z,20.66
2022-10-23T12:12:56.977Z,20.69
2022-10-23T12:13:56.953Z,20.82
2022-10-23T12:14:56.934Z,20.73
2022-10-23T12:15:59.986Z,20.82
2022-10-23T12:16:56.903Z,20.68
2022-10-23T12:17:56.883Z,20.71
2022-10-23T12:18:56.853Z,20.81
2022-10-23T12:19:56.828Z,20.78
2022-10-23T12:20:56.811Z,20.76
2022-10-23T12:21:56.784Z,20.83
2022-10-23T12:22:56.773Z,20.91
2022-10-23T12:23:56.758Z,20.87
2022-10-23T12:24:56.734Z,20.87
2022-10-23T12:25:56.704Z,20.91
2022-10-23T12:26:56.686Z,20.82
2022-10-23T12:27:56.674Z,20.78
2022-10-23T12:28:56.647Z,20.78
2022-10-23T12:29:56.624Z,20.85
2022-10-23T12:45:59.229Z,20.69
2022-10-23T12:46:59.209Z,20.72
2022-10-23T12:47:59.171Z,20.73
2022-10-23T12:48:59.149Z,20.68
2022-10-23T12:49:59.126Z,20.57
2022-10-23T12:59:38.825Z,20.69
2022-10-23T13:02:07.431Z,20.68
2022-10-23T13:03:07.335Z,20.68
2022-10-23T13:10:40.649Z,20.38
2022-10-23T13:11:40.597Z,20.33
2022-10-23T13:12:40.608Z,20.41
2022-10-23T13:13:40.523Z,20.37
2022-10-23T13:14:43.587Z,20.38
2022-10-23T13:15:40.454Z,20.38
2022-10-23T13:16:40.399Z,20.42
2022-10-23T13:17:40.554Z,20.37
2022-10-23T13:18:40.321Z,20.40
2022-10-23T13:19:40.286Z,20.30
2022-10-23T13:20:40.253Z,20.33
2022-10-23T13:21:40.222Z,20.20
2022-10-23T13:22:40.181Z,20.20
2022-10-23T13:23:40.148Z,20.22
2022-10-23T13:24:40.096Z,20.10
2022-10-23T13:25:40.061Z,20.16
2022-10-23T13:26:40.022Z,20.07
2022-10-23T13:27:39.988Z,19.95
2022-10-23T13:28:39.946Z,19.98
2022-10-23T13:29:39.928Z,19.98
2022-10-23T13:30:39.881Z,20.00
2022-10-23T13:31:39.838Z,20.05
2022-10-23T13:32:39.799Z,20.12
2022-10-23T13:33:39.763Z,20.04